Aeroporto :
LOGIN :

Iscrizione | Disclaimer

   EN    FR    IT 

 










Sommario :    VFR   VFR Marginale   IFR   IFR Intensivo   IFR Molto Intensivo
Visibilità : 
Base nubi : 
>= 8 km
>= 3000ft
5 / 8 km
1000 / 3000 ft
1500m / 5 km
500 / 1000 ft
800 / 1500m
200 / 500 ft
< 800m
< 200 ft
Simboli :   Temporali  Nebbia  Neve Forte  Precipitazioni Forti  Vento > 20 kt
SIGMETs :   Varie  Temporali  Ghiacco  Turbolenza  Onda orograficha  Ceneri Vulcaniche






- Altitudine del aeroporto : 233 ft
- Codice IATA : REU


LERS - Reus Tarragona

ULTIMO METAR :
  • 081130Z 14004KT 080V220 9999 FEW030 17/07 Q1025

METARs OBSOLETI :
  • 081100Z 15004KT 080V210 9999 FEW030 17/07 Q1025
  • 081030Z 17004KT 100V230 9999 FEW030 18/07 Q1026
  • 081000Z VRB01KT 9999 FEW030 17/06 Q1026
  • 080930Z 00000KT 9999 FEW030 17/07 Q1026
  • 080900Z VRB02KT 9999 FEW030 15/08 Q1026

TAF TAF LERS
Valido dal 08 a 09 ore il 09 a 09 ore UTC


080800Z 0809/0909 VRB03KT 9999 FEW030 TX19/0812Z TN07/0906Z
TEMPO 0810/0818 18007KT



MetMap, La meteo Aeronautica in un colpo d'occhio ! - Copyright ORBIFLY Dicembre 2007 - Disclaimer

ORBIFLY MET'MAP TEAM :

Programmazione e sviluppo : Alexandra Zaïnal
Concezione : Baudouin d'Aumeries
Aiuto per la programmazione : Marc-Olivier Méhu
Supporto tecnico e logistico : Manuel Goepfert
Aiuto per la traduzione : Arnaldo La Scala

Contatto : metmap@orbifly.com




FONTI E CREDITI :

   NOAA